Aérodrome :
LOGIN :

S'inscrire | Disclaimer

   EN    FR    IT 

 










Légende :    VFR   VFR Marginal   IFR   IFR Intensif   IFR Très Intensif
Visi : 
Plafond : 
>= 8 km
>= 3000ft
5 à 8 km
1000 à 3000 ft
1500m à 5 km
500 à 1000 ft
800 à 1500m
200 à 500 ft
< 800m
< 200 ft
Symboles :   Orages  Brouillard  Fortes neiges  Fortes précipitations  Vent > 20 kt
SIGMETs :   Divers  Orages  Givrage  Turbulence  Onde Orograph.  Cendres Volcan.






- Altitude de l'aérodrome : 82 ft
- Code IATA : QIE


LFMI - Istres

DERNIER METAR :
  • 011200Z AUTO 31010KT CAVOK 10/01 Q1015 BECMG 34015G30KT

METARs EXPIRÉS :
  • 011130Z AUTO 32010KT CAVOK 09/00 Q1016 BECMG 34015G30KT
  • 011100Z AUTO 28011KT CAVOK 09/00 Q1016 NOSIG
  • 011030Z AUTO 29010KT CAVOK 09/00 Q1017 NOSIG
  • 011000Z AUTO 29010KT CAVOK 07/00 Q1017 NOSIG
  • 010930Z AUTO 29010KT CAVOK 07/01 Q1018 NOSIG

TAF TAF LFMI
Valide du 01 à 09h jusqu'au 02 à 09h UTC


010800Z 0109/0209 30010KT CAVOK TX12/0114Z TN04/0202Z
BECMG 0113/0115 34015G30KT



MET'MAP, la Météo Aéronautique d'un coup d'oeil ! - Copyright ORBIFLY Décembre 2007 - Disclaimer

ORBIFLY MET'MAP TEAM :

Programmation & Développement : Alexandra Zaïnal
Sur une idée originale de : Baudouin d'Aumeries
Assistance à la programmation : Marc-Olivier Méhu
Soutien technique & logistique : Manuel Goepfert

Contact : metmap@orbifly.com




SOURCES & CREDITS :

   NOAA